createdAt,value
2023-05-02T00:00:08.462Z,20.81
2023-05-02T00:02:38.930Z,20.80
2023-05-02T00:05:10.286Z,20.79
2023-05-02T00:07:39.680Z,20.78
2023-05-02T00:10:09.714Z,20.79
2023-05-02T00:12:38.793Z,20.80
2023-05-02T00:15:08.979Z,20.81
2023-05-02T00:17:37.628Z,20.83
2023-05-02T00:20:09.373Z,20.83
2023-05-02T00:22:39.931Z,20.85
2023-05-02T00:25:10.197Z,20.85
2023-05-02T00:27:38.625Z,20.87
2023-05-02T00:30:09.180Z,20.87
2023-05-02T00:32:38.200Z,20.85
2023-05-02T00:35:08.751Z,20.82
2023-05-02T00:37:39.103Z,20.78
2023-05-02T00:40:09.664Z,20.76
2023-05-02T00:42:38.058Z,20.73
2023-05-02T00:45:07.895Z,20.71
2023-05-02T00:47:37.035Z,20.70
2023-05-02T00:50:06.698Z,20.67
2023-05-02T00:52:35.383Z,20.63
2023-05-02T00:55:06.931Z,20.59
2023-05-02T00:57:35.450Z,20.52
2023-05-02T01:00:06.893Z,20.46
2023-05-02T01:02:46.802Z,20.41
2023-05-02T01:05:20.172Z,20.36
2023-05-02T01:08:04.780Z,20.31
2023-05-02T01:10:50.174Z,20.25
2023-05-02T01:13:23.510Z,20.22
2023-05-02T01:15:54.938Z,20.17
2023-05-02T01:18:26.767Z,20.15
2023-05-02T01:20:59.675Z,20.10
2023-05-02T01:23:40.313Z,20.09
2023-05-02T01:26:21.067Z,20.07
2023-05-02T01:29:00.428Z,20.05
2023-05-02T01:31:33.246Z,20.04
2023-05-02T01:34:04.121Z,20.03
2023-05-02T01:36:34.607Z,20.03
2023-05-02T01:39:03.921Z,20.01
2023-05-02T01:41:33.691Z,20.03
2023-05-02T01:44:05.576Z,20.07
2023-05-02T01:46:38.237Z,20.10
2023-05-02T01:49:09.332Z,20.11
2023-05-02T01:51:42.357Z,20.10
2023-05-02T01:54:11.611Z,20.06
2023-05-02T01:56:41.791Z,20.03
2023-05-02T01:59:16.666Z,20.01
2023-05-02T02:01:46.912Z,19.98
2023-05-02T02:04:17.305Z,19.95
2023-05-02T02:06:53.498Z,19.89
2023-05-02T02:09:22.264Z,19.79
2023-05-02T02:11:55.360Z,19.71
2023-05-02T02:14:29.393Z,19.64
2023-05-02T02:17:02.650Z,19.60
2023-05-02T02:19:32.394Z,19.55
2023-05-02T02:22:01.893Z,19.50
2023-05-02T02:24:31.412Z,19.45
2023-05-02T02:27:00.781Z,19.40
2023-05-02T02:29:30.560Z,19.38
2023-05-02T02:31:59.233Z,19.31
2023-05-02T02:34:27.672Z,19.30
2023-05-02T02:37:02.289Z,19.30
2023-05-02T02:39:46.559Z,19.32
2023-05-02T02:42:35.211Z,19.33
2023-05-02T02:45:18.596Z,19.34
2023-05-02T02:47:56.497Z,19.32
2023-05-02T02:50:33.538Z,19.33
2023-05-02T02:53:06.595Z,19.30
2023-05-02T02:55:46.138Z,19.29
2023-05-02T02:58:24.689Z,19.27
2023-05-02T03:00:55.984Z,19.26
2023-05-02T03:03:29.180Z,19.25
2023-05-02T03:05:58.658Z,19.26
2023-05-02T03:08:27.421Z,19.27
2023-05-02T03:10:55.877Z,19.29
2023-05-02T03:13:24.551Z,19.29
2023-05-02T03:16:31.321Z,19.30
2023-05-02T03:19:00.868Z,19.31
2023-05-02T03:21:31.546Z,19.33
2023-05-02T03:24:06.740Z,19.34
2023-05-02T03:26:35.730Z,19.36
2023-05-02T03:29:04.324Z,19.38
2023-05-02T03:31:39.865Z,19.37
2023-05-02T03:34:08.338Z,19.35
2023-05-02T03:36:38.429Z,19.35
2023-05-02T03:39:07.055Z,19.35
2023-05-02T03:41:36.630Z,19.39
2023-05-02T03:44:09.949Z,19.39
2023-05-02T03:46:40.282Z,19.38
2023-05-02T03:49:13.727Z,19.35
2023-05-02T03:51:45.272Z,19.34
2023-05-02T03:54:14.646Z,19.31
2023-05-02T03:56:45.100Z,19.32
2023-05-02T03:59:35.200Z,19.32
2023-05-02T04:02:12.227Z,19.31
2023-05-02T04:04:44.633Z,19.32
2023-05-02T04:07:19.404Z,19.32
2023-05-02T04:09:52.249Z,19.35
2023-05-02T04:12:21.552Z,19.35
2023-05-02T04:14:52.783Z,19.37
2023-05-02T04:17:26.376Z,19.38
2023-05-02T04:19:54.758Z,19.39
2023-05-02T04:22:26.723Z,19.41
2023-05-02T04:24:59.939Z,19.41
2023-05-02T04:27:29.328Z,19.39
2023-05-02T04:29:58.728Z,19.36
2023-05-02T04:32:29.527Z,19.35
2023-05-02T04:34:59.597Z,19.34
2023-05-02T04:37:28.349Z,19.33
2023-05-02T04:39:57.479Z,19.30
2023-05-02T04:42:28.944Z,19.27
2023-05-02T04:45:09.169Z,19.24
2023-05-02T04:47:39.982Z,19.22
2023-05-02T04:50:10.604Z,19.19
2023-05-02T04:52:39.514Z,19.15
2023-05-02T04:55:09.199Z,19.13
2023-05-02T04:57:39.875Z,19.09
2023-05-02T05:00:11.156Z,19.08
2023-05-02T05:02:41.065Z,19.08
2023-05-02T05:05:11.249Z,19.06
2023-05-02T05:07:40.056Z,19.06
2023-05-02T05:10:11.945Z,19.05
2023-05-02T05:12:46.288Z,19.03
2023-05-02T05:15:16.124Z,19.02
2023-05-02T05:17:50.803Z,19.02
2023-05-02T05:20:19.818Z,19.02
2023-05-02T05:22:49.756Z,19.01
2023-05-02T05:25:18.542Z,19.02
2023-05-02T05:27:49.328Z,18.99
2023-05-02T05:30:17.940Z,18.98
2023-05-02T05:32:46.613Z,18.95
2023-05-02T05:35:16.616Z,18.91
2023-05-02T05:37:45.422Z,18.79
2023-05-02T05:40:18.399Z,18.71
2023-05-02T05:42:52.908Z,18.64
2023-05-02T05:45:32.145Z,18.54
2023-05-02T05:48:00.838Z,18.49
2023-05-02T05:50:34.377Z,18.43
2023-05-02T05:53:02.974Z,18.40
2023-05-02T05:55:31.352Z,18.37
2023-05-02T05:57:59.732Z,18.38
2023-05-02T06:00:29.022Z,18.37
2023-05-02T06:02:57.797Z,18.36
2023-05-02T06:05:30.162Z,18.36
2023-05-02T06:08:00.414Z,18.33
2023-05-02T06:10:29.255Z,18.26
2023-05-02T06:12:58.531Z,18.18
2023-05-02T06:15:34.570Z,18.15
2023-05-02T06:18:03.861Z,18.13
2023-05-02T06:20:32.344Z,18.12
2023-05-02T06:23:02.760Z,18.11
2023-05-02T06:25:32.897Z,18.13
2023-05-02T06:28:01.684Z,18.17
2023-05-02T06:30:30.097Z,18.22
2023-05-02T06:32:58.468Z,18.27
2023-05-02T06:35:27.172Z,18.31
2023-05-02T06:37:55.587Z,18.33
2023-05-02T06:40:25.324Z,18.33
2023-05-02T06:42:53.734Z,18.33
2023-05-02T06:45:22.149Z,18.35
2023-05-02T06:47:50.966Z,18.33
2023-05-02T06:50:19.941Z,18.35
2023-05-02T06:52:48.358Z,18.36
2023-05-02T06:55:17.099Z,18.38
2023-05-02T06:57:47.113Z,18.40
2023-05-02T07:00:18.212Z,18.40
2023-05-02T07:02:48.010Z,18.42
2023-05-02T07:05:17.522Z,18.42
2023-05-02T07:07:46.534Z,18.42
2023-05-02T07:10:14.915Z,18.42
2023-05-02T07:12:43.288Z,18.40
2023-05-02T07:15:16.492Z,18.41
2023-05-02T07:17:47.405Z,18.40
2023-05-02T07:20:16.465Z,18.38
2023-05-02T07:22:44.864Z,18.39
2023-05-02T07:25:13.266Z,18.40
2023-05-02T07:27:41.692Z,18.43
2023-05-02T07:30:13.501Z,18.41
2023-05-02T07:32:41.886Z,18.39
2023-05-02T07:35:10.980Z,18.39
2023-05-02T07:37:39.449Z,18.38
2023-05-02T07:40:10.156Z,18.37
2023-05-02T07:42:38.626Z,18.36
2023-05-02T07:45:09.072Z,18.38
2023-05-02T07:47:39.024Z,18.38
2023-05-02T07:50:09.101Z,18.39
2023-05-02T07:52:37.497Z,18.36
2023-05-02T07:55:07.560Z,18.34
2023-05-02T07:57:35.919Z,18.29
2023-05-02T08:00:08.077Z,18.24
2023-05-02T08:02:43.248Z,18.16
2023-05-02T08:05:12.323Z,18.07
2023-05-02T08:07:40.937Z,17.99
2023-05-02T08:10:11.535Z,17.89
2023-05-02T08:12:41.391Z,17.79
2023-05-02T08:15:13.505Z,17.72
2023-05-02T08:17:43.603Z,17.60
2023-05-02T08:20:12.904Z,17.46
2023-05-02T08:22:41.277Z,17.36
2023-05-02T08:25:10.591Z,17.28
2023-05-02T08:27:39.017Z,17.23
2023-05-02T08:30:09.305Z,17.20
2023-05-02T08:32:38.661Z,17.19
2023-05-02T08:35:10.191Z,17.18
2023-05-02T08:37:40.389Z,17.23
2023-05-02T08:40:14.399Z,17.25
2023-05-02T08:42:44.925Z,17.25
2023-05-02T08:45:16.821Z,17.22
2023-05-02T08:47:46.999Z,17.16
2023-05-02T08:50:19.463Z,17.14
2023-05-02T08:52:50.734Z,17.11
2023-05-02T08:55:27.651Z,17.08
2023-05-02T08:57:59.113Z,17.06
2023-05-02T09:00:29.127Z,17.06
2023-05-02T09:03:08.605Z,17.08
2023-05-02T09:05:42.517Z,17.11
2023-05-02T09:08:11.121Z,17.13
2023-05-02T09:10:43.053Z,17.15
2023-05-02T09:13:34.778Z,17.13
2023-05-02T09:16:05.692Z,17.14
2023-05-02T09:18:38.346Z,17.16
2023-05-02T09:21:12.877Z,17.17
2023-05-02T09:23:42.998Z,17.17
2023-05-02T09:26:19.701Z,17.17
2023-05-02T09:28:49.946Z,17.18
2023-05-02T09:31:43.654Z,17.19
2023-05-02T09:34:12.709Z,17.21
2023-05-02T09:36:44.830Z,17.24
2023-05-02T09:39:15.477Z,17.24
2023-05-02T09:41:45.412Z,17.25
2023-05-02T09:44:15.614Z,17.26
2023-05-02T09:46:45.772Z,17.28
2023-05-02T09:49:14.992Z,17.28
2023-05-02T09:51:44.773Z,17.28
2023-05-02T09:54:13.964Z,17.27
2023-05-02T09:56:56.614Z,17.27
2023-05-02T09:59:26.110Z,17.29
2023-05-02T10:01:59.594Z,17.35
2023-05-02T10:04:29.693Z,17.37
2023-05-02T10:07:00.870Z,17.41
2023-05-02T10:09:32.748Z,17.42
2023-05-02T10:12:05.157Z,17.45
2023-05-02T10:14:41.279Z,17.47
2023-05-02T10:17:16.500Z,17.48
2023-05-02T10:19:55.568Z,17.52
2023-05-02T10:22:25.942Z,17.55
2023-05-02T10:24:55.161Z,17.58
2023-05-02T10:27:24.192Z,17.64
2023-05-02T10:29:53.978Z,17.68
2023-05-02T10:32:26.007Z,17.69
2023-05-02T10:34:58.030Z,17.74
2023-05-02T10:37:28.951Z,17.78
2023-05-02T10:39:57.444Z,17.79
2023-05-02T10:42:26.295Z,17.80
2023-05-02T10:44:54.983Z,17.81
2023-05-02T10:47:25.419Z,17.84
2023-05-02T10:49:56.216Z,17.88
2023-05-02T10:52:31.733Z,17.92
2023-05-02T10:55:20.626Z,17.93
2023-05-02T10:58:33.112Z,17.93
2023-05-02T11:01:39.883Z,17.90
2023-05-02T11:04:11.120Z,17.89
2023-05-02T11:07:18.512Z,17.92
2023-05-02T11:09:48.398Z,17.96
2023-05-02T11:12:48.831Z,18.00
2023-05-02T11:15:54.278Z,18.04
2023-05-02T11:18:22.760Z,18.08
2023-05-02T11:20:51.180Z,18.11
2023-05-02T11:23:27.001Z,18.14
2023-05-02T11:26:00.485Z,18.15
2023-05-02T11:28:49.907Z,18.13
2023-05-02T11:32:03.782Z,18.13
2023-05-02T11:34:53.324Z,18.17
2023-05-02T11:37:22.460Z,18.21
2023-05-02T11:39:51.656Z,18.20
2023-05-02T11:42:30.164Z,18.22
2023-05-02T11:45:01.339Z,18.25
2023-05-02T11:47:30.620Z,18.27
2023-05-02T11:50:01.450Z,18.27
2023-05-02T11:52:30.784Z,18.27
2023-05-02T11:54:59.621Z,18.28
2023-05-02T11:57:28.349Z,18.29
2023-05-02T11:59:59.101Z,18.29
2023-05-02T12:02:38.900Z,18.29
2023-05-02T12:05:13.378Z,18.26
2023-05-02T12:07:44.973Z,18.23
2023-05-02T12:10:14.993Z,18.26
2023-05-02T12:12:45.785Z,18.26
2023-05-02T12:15:14.861Z,18.27
2023-05-02T12:17:48.553Z,18.26
2023-05-02T12:20:19.159Z,18.29
2023-05-02T12:22:48.196Z,18.31
2023-05-02T12:25:16.915Z,18.38
2023-05-02T12:28:01.494Z,18.48
2023-05-02T12:30:30.762Z,18.53
2023-05-02T12:33:01.327Z,18.58
2023-05-02T12:35:32.998Z,18.67
2023-05-02T12:38:17.190Z,18.72
2023-05-02T12:40:52.293Z,18.72
2023-05-02T12:43:22.007Z,18.71
2023-05-02T12:45:53.716Z,18.74
2023-05-02T12:48:25.646Z,18.75
2023-05-02T12:50:56.553Z,18.75
2023-05-02T12:53:42.146Z,18.74
2023-05-02T12:56:11.538Z,18.73
2023-05-02T12:58:45.819Z,18.77
2023-05-02T13:01:15.238Z,18.77
2023-05-02T13:03:45.362Z,18.78
2023-05-02T13:06:15.322Z,18.82
2023-05-02T13:08:44.241Z,18.85
2023-05-02T13:11:12.986Z,18.89
2023-05-02T13:13:41.565Z,18.95
2023-05-02T13:16:10.850Z,18.99
2023-05-02T13:18:39.286Z,19.05
2023-05-02T13:21:07.731Z,19.13
2023-05-02T13:23:39.910Z,19.23
2023-05-02T13:26:08.661Z,19.25
2023-05-02T13:28:37.481Z,19.28
2023-05-02T13:31:06.415Z,19.27
2023-05-02T13:33:35.079Z,19.26
2023-05-02T13:36:03.447Z,19.25
2023-05-02T13:38:31.949Z,19.23
2023-05-02T13:41:01.724Z,19.22
2023-05-02T13:43:30.216Z,19.24
2023-05-02T13:45:58.718Z,19.28
2023-05-02T13:48:27.021Z,19.32
2023-05-02T13:50:55.506Z,19.36
2023-05-02T13:53:23.909Z,19.42
2023-05-02T13:55:52.385Z,19.46
2023-05-02T13:58:22.739Z,19.46
2023-05-02T14:00:51.102Z,19.46
2023-05-02T14:03:20.487Z,19.42
2023-05-02T14:05:49.283Z,19.43
2023-05-02T14:08:19.352Z,19.49
2023-05-02T14:10:47.747Z,19.60
2023-05-02T14:13:16.136Z,19.63
2023-05-02T14:15:46.218Z,19.63
2023-05-02T14:18:16.744Z,19.61
2023-05-02T14:20:45.266Z,19.55
2023-05-02T14:23:13.841Z,19.51
2023-05-02T14:25:42.234Z,19.50
2023-05-02T14:28:10.654Z,19.53
2023-05-02T14:30:39.155Z,19.60
2023-05-02T14:33:08.891Z,19.65
2023-05-02T14:35:37.868Z,19.67
2023-05-02T14:38:06.396Z,19.70
2023-05-02T14:40:35.046Z,19.72
2023-05-02T14:43:03.502Z,19.75
2023-05-02T14:45:31.783Z,19.79
2023-05-02T14:48:00.358Z,19.86
2023-05-02T14:50:30.788Z,19.94
2023-05-02T14:52:59.452Z,19.98
2023-05-02T14:55:27.928Z,20.00
2023-05-02T14:57:57.424Z,20.00
2023-05-02T15:00:27.111Z,19.99
2023-05-02T15:02:55.868Z,20.01
2023-05-02T15:05:24.566Z,20.03
2023-05-02T15:07:54.294Z,20.39
2023-05-02T15:10:23.027Z,20.23
2023-05-02T15:12:51.443Z,20.33
2023-05-02T15:15:20.423Z,20.13
2023-05-02T15:17:48.892Z,20.02
2023-05-02T15:20:17.409Z,19.96
2023-05-02T15:22:45.778Z,19.90
2023-05-02T15:25:16.324Z,19.85
2023-05-02T15:27:44.701Z,19.80
2023-05-02T15:30:15.898Z,19.79
2023-05-02T15:32:45.590Z,19.79
2023-05-02T15:35:14.187Z,19.81
2023-05-02T15:37:42.539Z,19.82
2023-05-02T15:40:12.094Z,19.78
2023-05-02T15:42:42.187Z,19.77
2023-05-02T15:45:14.084Z,19.76
2023-05-02T15:47:42.831Z,19.73
2023-05-02T15:50:12.248Z,19.72
2023-05-02T15:52:40.756Z,19.69
2023-05-02T15:55:09.974Z,19.70
2023-05-02T15:57:38.335Z,19.72
2023-05-02T16:00:16.929Z,19.73
2023-05-02T16:02:45.800Z,19.75
2023-05-02T16:05:14.535Z,19.74
2023-05-02T16:07:43.267Z,19.73
2023-05-02T16:10:12.108Z,19.68
2023-05-02T16:12:40.536Z,19.65
2023-05-02T16:15:11.365Z,19.62
2023-05-02T16:17:39.782Z,19.61
2023-05-02T16:20:10.827Z,19.58
2023-05-02T16:22:43.997Z,19.56
2023-05-02T16:25:12.629Z,19.55
2023-05-02T16:27:41.128Z,19.52
2023-05-02T16:30:12.649Z,19.53
2023-05-02T16:32:41.293Z,19.54
2023-05-02T16:35:13.194Z,19.55
2023-05-02T16:37:42.602Z,19.53
2023-05-02T16:40:12.678Z,19.51
2023-05-02T16:42:41.649Z,19.47
2023-05-02T16:45:12.352Z,19.42
2023-05-02T16:47:41.089Z,19.39
2023-05-02T16:50:10.577Z,19.37
2023-05-02T16:52:38.907Z,19.37
2023-05-02T16:55:08.787Z,19.37
2023-05-02T16:57:38.968Z,19.39
2023-05-02T17:00:11.083Z,19.40
2023-05-02T17:02:41.027Z,19.40
2023-05-02T17:05:11.374Z,19.37
2023-05-02T17:07:39.894Z,19.37
2023-05-02T17:10:09.881Z,19.30
2023-05-02T17:12:38.325Z,19.25
2023-05-02T17:15:08.350Z,19.22
2023-05-02T17:17:36.798Z,19.18
2023-05-02T17:20:08.974Z,19.18
2023-05-02T17:22:38.797Z,19.17
2023-05-02T17:25:08.044Z,19.16
2023-05-02T17:27:39.075Z,19.16
2023-05-02T17:30:13.557Z,19.17
2023-05-02T17:32:42.044Z,19.17
2023-05-02T17:35:12.140Z,19.17
2023-05-02T17:37:40.702Z,19.16
2023-05-02T17:40:11.206Z,19.17
2023-05-02T17:42:39.800Z,19.16
2023-05-02T17:45:10.384Z,19.16
2023-05-02T17:47:39.160Z,19.14
2023-05-02T17:50:09.357Z,19.12
2023-05-02T17:52:39.601Z,19.10
2023-05-02T17:55:09.719Z,19.09
2023-05-02T17:57:38.266Z,19.06
2023-05-02T18:00:08.584Z,19.05
2023-05-02T18:02:38.339Z,19.03
2023-05-02T18:05:08.100Z,19.04
2023-05-02T18:07:38.348Z,19.06
2023-05-02T18:10:08.281Z,19.08
2023-05-02T18:12:36.715Z,19.09
2023-05-02T18:15:06.598Z,19.10
2023-05-02T18:17:37.485Z,19.06
2023-05-02T18:20:07.258Z,19.03
2023-05-02T18:22:36.656Z,18.98
2023-05-02T18:25:08.038Z,18.94
2023-05-02T18:27:36.549Z,18.86
2023-05-02T18:30:06.009Z,18.82
2023-05-02T18:32:35.022Z,18.78
2023-05-02T18:35:03.999Z,18.76
2023-05-02T18:37:32.857Z,18.74
2023-05-02T18:40:03.096Z,18.72
2023-05-02T18:42:33.002Z,18.72
2023-05-02T18:45:01.759Z,18.71
2023-05-02T18:47:31.555Z,18.70
2023-05-02T18:50:01.111Z,18.66
2023-05-02T18:52:31.758Z,18.64
2023-05-02T18:55:02.104Z,18.62
2023-05-02T18:57:33.978Z,18.61
2023-05-02T19:00:02.610Z,18.61
2023-05-02T19:02:31.643Z,18.60
2023-05-02T19:05:00.443Z,18.60
2023-05-02T19:07:29.140Z,18.60
2023-05-02T19:09:57.664Z,18.61
2023-05-02T19:12:26.366Z,18.59
2023-05-02T19:14:56.162Z,18.58
2023-05-02T19:17:26.807Z,18.53
2023-05-02T19:19:56.925Z,18.51
2023-05-02T19:22:27.775Z,18.48
2023-05-02T19:24:56.437Z,18.44
2023-05-02T19:27:25.263Z,18.43
2023-05-02T19:29:58.111Z,18.39
2023-05-02T19:32:26.829Z,18.34
2023-05-02T19:34:57.084Z,18.31
2023-05-02T19:37:25.695Z,18.27
2023-05-02T19:39:54.097Z,18.21
2023-05-02T19:42:22.505Z,18.18
2023-05-02T19:44:51.667Z,18.14
2023-05-02T19:47:21.428Z,18.12
2023-05-02T19:49:52.222Z,18.08
2023-05-02T19:52:20.957Z,18.07
2023-05-02T19:54:52.259Z,18.05
2023-05-02T19:57:21.656Z,18.04
2023-05-02T19:59:49.985Z,18.01
2023-05-02T20:02:18.489Z,17.99
2023-05-02T20:04:48.381Z,18.00
2023-05-02T20:07:16.891Z,17.98
2023-05-02T20:09:45.288Z,17.98
2023-05-02T20:12:13.653Z,17.96
2023-05-02T20:14:42.030Z,17.94
2023-05-02T20:17:10.837Z,17.96
2023-05-02T20:19:39.595Z,17.94
2023-05-02T20:22:09.631Z,17.94
2023-05-02T20:24:38.330Z,17.93
2023-05-02T20:27:06.680Z,17.91
2023-05-02T20:29:35.391Z,17.90
2023-05-02T20:32:03.810Z,17.87
2023-05-02T20:34:35.456Z,17.82
2023-05-02T20:37:07.916Z,17.74
2023-05-02T20:39:37.098Z,17.69
2023-05-02T20:42:05.831Z,17.66
2023-05-02T20:44:34.577Z,17.65
2023-05-02T20:47:03.572Z,17.66
2023-05-02T20:49:32.623Z,17.69
2023-05-02T20:52:05.546Z,17.72
2023-05-02T20:54:35.658Z,17.73
2023-05-02T20:57:04.377Z,17.76
2023-05-02T20:59:33.046Z,17.78
2023-05-02T21:02:01.966Z,17.79
2023-05-02T21:04:30.518Z,17.80
2023-05-02T21:06:59.268Z,17.82
2023-05-02T21:09:28.046Z,17.84
2023-05-02T21:11:58.675Z,17.84
2023-05-02T21:14:28.093Z,17.85
2023-05-02T21:16:56.632Z,17.84
2023-05-02T21:19:25.737Z,17.85
2023-05-02T21:21:54.111Z,17.86
2023-05-02T21:24:22.452Z,17.85
2023-05-02T21:26:50.791Z,17.83
2023-05-02T21:29:21.250Z,17.84
2023-05-02T21:31:50.924Z,17.83
2023-05-02T21:34:20.776Z,17.84
2023-05-02T21:36:49.298Z,17.83
2023-05-02T21:39:18.267Z,17.84
2023-05-02T21:41:46.640Z,17.84
2023-05-02T21:44:15.150Z,17.83
2023-05-02T21:46:47.732Z,17.83
2023-05-02T21:49:17.036Z,17.82
2023-05-02T21:51:45.537Z,17.80
2023-05-02T21:54:13.822Z,17.81
2023-05-02T21:56:42.417Z,17.79
2023-05-02T21:59:11.117Z,17.78
2023-05-02T22:01:39.496Z,17.79
2023-05-02T22:04:09.684Z,17.78
2023-05-02T22:06:38.140Z,17.77
2023-05-02T22:09:08.336Z,17.76
2023-05-02T22:11:37.224Z,17.75
2023-05-02T22:14:05.704Z,17.74
2023-05-02T22:16:34.281Z,17.73
2023-05-02T22:19:02.793Z,17.72
2023-05-02T22:21:33.349Z,17.71
2023-05-02T22:24:01.677Z,17.70
2023-05-02T22:26:30.379Z,17.67
2023-05-02T22:28:59.105Z,17.67
2023-05-02T22:31:27.685Z,17.66
2023-05-02T22:33:56.163Z,17.65
2023-05-02T22:36:24.803Z,17.64
2023-05-02T22:38:56.374Z,17.61
2023-05-02T22:41:24.846Z,17.59
2023-05-02T22:43:53.391Z,17.56
2023-05-02T22:46:21.831Z,17.55
2023-05-02T22:48:50.999Z,17.52
2023-05-02T22:51:19.409Z,17.49
2023-05-02T22:53:49.160Z,17.46
2023-05-02T22:56:19.247Z,17.43
2023-05-02T22:58:49.899Z,17.42
2023-05-02T23:01:18.222Z,17.40
2023-05-02T23:03:46.661Z,17.39
2023-05-02T23:06:15.140Z,17.35
2023-05-02T23:08:43.590Z,17.33
2023-05-02T23:11:11.982Z,17.31
2023-05-02T23:13:42.033Z,17.27
2023-05-02T23:16:10.392Z,17.26
2023-05-02T23:18:38.861Z,17.24
2023-05-02T23:21:14.929Z,17.22
2023-05-02T23:23:44.022Z,17.20
2023-05-02T23:26:12.970Z,17.18
2023-05-02T23:28:43.046Z,17.18
2023-05-02T23:31:11.646Z,17.16
2023-05-02T23:33:40.134Z,17.14
2023-05-02T23:36:09.746Z,17.14
2023-05-02T23:38:39.426Z,17.13
2023-05-02T23:41:08.551Z,17.11
2023-05-02T23:43:37.150Z,17.09
2023-05-02T23:46:07.258Z,17.08
2023-05-02T23:48:36.089Z,17.07
2023-05-02T23:51:05.001Z,17.06
2023-05-02T23:53:33.383Z,17.04
2023-05-02T23:56:02.349Z,16.99
2023-05-02T23:58:30.759Z,16.97
